Time;durP1;ratioP1;P1;durP2;ratioP2;P2;SDS_P1;SDS_P2;PMS_P1;PMS_P2;Temp;Humidity;BMP_temperature;BMP_pressure;BME280_temperature;BME280_humidity;BME280_pressure;Samples;Min_cycle;Max_cycle;Signal;HPM_P1;HPM_P2
2022/05/23 00:02:18;;;;;;;8.63;4.18;;;18.20;99.90;;;;;;4995593;28;20050;-73
2022/05/23 00:04:45;;;;;;;4.85;3.15;;;18.40;99.90;;;;;;4996301;28;20058;-73
2022/05/23 00:07:29;;;;;;;5.32;3.50;;;18.40;99.90;;;;;;4995672;28;20053;-73
2022/05/23 00:09:55;;;;;;;5.82;3.42;;;18.40;99.90;;;;;;4995679;28;20877;-73
2022/05/23 00:12:22;;;;;;;7.07;2.90;;;18.40;99.90;;;;;;4995694;28;20112;-73
2022/05/23 00:14:49;;;;;;;6.28;3.30;;;18.20;99.90;;;;;;4995507;28;20046;-73
2022/05/23 00:17:16;;;;;;;4.55;2.83;;;18.30;99.90;;;;;;4995348;28;20105;-73
2022/05/23 00:19:42;;;;;;;7.90;3.45;;;18.30;99.90;;;;;;4995294;28;20493;-73
2022/05/23 00:22:10;;;;;;;7.38;3.53;;;18.40;99.90;;;;;;4995694;28;20042;-73
2022/05/23 00:24:36;;;;;;;7.28;3.38;;;18.40;99.90;;;;;;4995404;28;20399;-73
2022/05/23 00:27:02;;;;;;;7.65;3.58;;;18.40;99.90;;;;;;4995444;28;20121;-72
2022/05/23 00:29:28;;;;;;;9.60;3.10;;;18.40;99.90;;;;;;4977424;28;20023;-72
2022/05/23 00:37:23;;;;;;;6.47;3.13;;;18.30;99.90;;;;;;4995279;28;20408;-72
2022/05/23 00:39:49;;;;;;;7.05;3.42;;;18.30;99.90;;;;;;4995239;28;20022;-72
2022/05/23 00:45:05;;;;;;;7.32;3.60;;;18.30;99.90;;;;;;4995029;28;20104;-73
2022/05/23 00:47:35;;;;;;;13.73;3.33;;;18.30;99.90;;;;;;4994578;28;20062;-73
2022/05/23 00:50:01;;;;;;;6.80;3.17;;;18.40;99.90;;;;;;4994959;28;20030;-73
2022/05/23 00:52:41;;;;;;;3.78;2.85;;;18.40;99.90;;;;;;4977506;28;20054;-73
2022/05/23 00:55:19;;;;;;;8.55;3.17;;;18.40;99.90;;;;;;4977393;28;20088;-73
2022/05/23 00:57:50;;;;;;;7.63;3.47;;;18.40;99.90;;;;;;4994831;28;20455;-73
2022/05/23 01:00:17;;;;;;;6.15;3.13;;;18.40;99.90;;;;;;4977420;28;20092;-73
2022/05/23 01:02:50;;;;;;;7.70;3.55;;;18.40;99.90;;;;;;4993317;28;20477;-73
2022/05/23 01:05:16;;;;;;;9.65;3.47;;;18.30;99.90;;;;;;4976751;28;20038;-73
2022/05/23 01:07:42;;;;;;;5.78;3.50;;;18.20;99.90;;;;;;4977350;28;20034;-72
2022/05/23 01:10:09;;;;;;;11.45;3.45;;;18.10;99.90;;;;;;4994650;28;20023;-73
2022/05/23 01:12:37;;;;;;;9.65;3.78;;;18.10;99.90;;;;;;4977010;28;20033;-73
2022/05/23 01:15:05;;;;;;;7.30;3.60;;;18.10;99.90;;;;;;4994370;28;20473;-73
2022/05/23 01:17:31;;;;;;;6.28;4.15;;;18.30;99.90;;;;;;4992936;28;20057;-73
2022/05/23 01:20:07;;;;;;;8.27;4.93;;;18.20;99.90;;;;;;4976742;28;20133;-72
2022/05/23 01:23:02;;;;;;;12.00;6.78;;;18.30;99.90;;;;;;4994322;28;20428;-73
2022/05/23 01:25:46;;;;;;;6.78;3.83;;;18.30;99.90;;;;;;4976805;28;20480;-72
2022/05/23 01:28:24;;;;;;;15.30;4.07;;;18.30;99.90;;;;;;4976532;28;20033;-73
2022/05/23 01:30:50;;;;;;;20.00;4.15;;;18.20;99.90;;;;;;4976799;28;20393;-72
2022/05/23 01:33:24;;;;;;;8.10;4.15;;;18.30;99.90;;;;;;4992750;28;20137;-72
2022/05/23 01:35:50;;;;;;;6.88;3.78;;;18.40;99.90;;;;;;4976708;28;20500;-70
2022/05/23 01:38:16;;;;;;;9.30;3.53;;;18.40;99.90;;;;;;4976670;28;20022;-73
2022/05/23 01:41:06;;;;;;;6.63;3.22;;;18.40;99.90;;;;;;4914614;29;20078;-72
2022/05/23 01:43:34;;;;;;;7.10;3.75;;;18.40;99.90;;;;;;4914653;29;20052;-73
2022/05/23 01:46:20;;;;;;;7.47;3.33;;;18.30;99.90;;;;;;4920811;29;20046;-73
2022/05/23 01:49:15;;;;;;;8.20;3.45;;;18.20;99.90;;;;;;4876912;29;20047;-73
2022/05/23 01:51:41;;;;;;;12.30;4.20;;;18.40;99.90;;;;;;4877337;29;20436;-72
2022/05/23 01:54:07;;;;;;;6.80;3.97;;;18.30;99.90;;;;;;4877515;29;20063;-72
2022/05/23 01:56:34;;;;;;;10.27;4.07;;;18.30;99.90;;;;;;4876877;29;20036;-73
2022/05/23 02:01:48;;;;;;;10.77;5.10;;;18.30;99.90;;;;;;4877383;29;20033;-73
2022/05/23 02:04:27;;;;;;;11.10;5.05;;;18.30;99.90;;;;;;4877081;29;20492;-73
2022/05/23 02:06:56;;;;;;;8.38;5.70;;;18.20;99.90;;;;;;4876543;29;20033;-73
2022/05/23 02:09:26;;;;;;;9.40;4.78;;;18.10;99.90;;;;;;4876771;29;20033;-72
2022/05/23 02:12:13;;;;;;;8.27;5.15;;;18.00;99.90;;;;;;4877101;29;20040;-73
2022/05/23 02:14:39;;;;;;;10.35;4.90;;;18.10;99.90;;;;;;4876968;29;20397;-72
2022/05/23 02:17:17;;;;;;;11.43;5.30;;;18.10;99.90;;;;;;4885692;29;20043;-73
2022/05/23 02:19:43;;;;;;;10.18;5.50;;;18.20;99.90;;;;;;4933250;29;20796;-73
2022/05/23 02:22:18;;;;;;;10.40;5.68;;;18.20;99.90;;;;;;4917629;29;20043;-73
2022/05/23 02:24:44;;;;;;;10.07;5.68;;;18.20;99.90;;;;;;4925040;28;20078;-73
2022/05/23 02:27:11;;;;;;;12.65;5.93;;;18.20;99.90;;;;;;4975758;28;20026;-73
2022/05/23 02:29:40;;;;;;;8.35;5.10;;;18.20;99.90;;;;;;4976110;28;20033;-73
2022/05/23 02:32:06;;;;;;;7.47;5.28;;;18.30;99.90;;;;;;4975692;28;20022;-72
2022/05/23 02:34:33;;;;;;;12.02;5.50;;;18.30;99.90;;;;;;4975754;28;20507;-73
2022/05/23 02:36:59;;;;;;;11.98;6.10;;;18.30;99.90;;;;;;4975671;28;20035;-73
2022/05/23 02:39:51;;;;;;;10.38;6.32;;;18.30;99.90;;;;;;4990016;28;20097;-73
2022/05/23 02:42:18;;;;;;;10.30;5.82;;;18.00;99.90;;;;;;4975558;28;20485;-73
2022/05/23 02:44:46;;;;;;;10.05;5.72;;;17.90;99.90;;;;;;4993203;28;20076;-73
2022/05/23 02:47:16;;;;;;;;;;;17.90;99.90;;;;;;4977578;28;20069;-73
2022/05/23 02:49:42;;;;;;;10.98;6.03;;;18.00;99.90;;;;;;4975535;28;20360;-72
2022/05/23 02:52:17;;;;;;;13.55;5.38;;;18.00;99.90;;;;;;4975598;28;20117;-72
2022/05/23 02:54:57;;;;;;;10.55;5.60;;;18.10;99.90;;;;;;4975623;28;20065;-73
2022/05/23 02:57:23;;;;;;;14.43;5.82;;;18.10;99.90;;;;;;4992925;28;20112;-74
2022/05/23 02:59:49;;;;;;;14.48;5.90;;;18.10;99.90;;;;;;4976855;28;20026;-73
2022/05/23 03:05:01;;;;;;;9.73;5.38;;;18.20;99.90;;;;;;4979448;28;20037;-74
2022/05/23 03:07:27;;;;;;;11.63;6.32;;;18.20;99.90;;;;;;4979456;28;20030;-73
2022/05/23 03:10:04;;;;;;;9.73;5.57;;;18.20;99.90;;;;;;4979340;28;20392;-72
2022/05/23 03:12:30;;;;;;;10.25;4.97;;;18.20;99.90;;;;;;4976239;28;20031;-73
2022/05/23 03:14:57;;;;;;;13.13;5.38;;;18.20;99.90;;;;;;4959813;28;20080;-73
2022/05/23 03:17:23;;;;;;;13.05;5.20;;;18.20;99.90;;;;;;4978693;28;20034;-73
2022/05/23 03:19:49;;;;;;;12.48;5.68;;;18.10;99.90;;;;;;4994863;28;20022;-73
2022/05/23 03:28:03;;;;;;;10.40;5.70;;;18.10;99.90;;;;;;4955373;29;20441;-73
2022/05/23 03:30:31;;;;;;;10.63;5.22;;;18.10;99.90;;;;;;4955587;29;20486;-74
2022/05/23 03:32:58;;;;;;;12.75;5.50;;;18.20;99.90;;;;;;4939324;29;20144;-73
2022/05/23 03:35:26;;;;;;;9.90;5.55;;;18.20;99.90;;;;;;4955360;29;20038;-73
2022/05/23 03:37:53;;;;;;;10.20;5.80;;;18.30;99.90;;;;;;4955510;29;20039;-72
2022/05/23 03:40:19;;;;;;;17.60;6.85;;;18.10;99.90;;;;;;4955456;29;20054;-73
2022/05/23 03:42:54;;;;;;;17.38;6.70;;;18.20;99.90;;;;;;4955040;29;20077;-73
2022/05/23 03:45:22;;;;;;;9.75;5.53;;;18.30;99.90;;;;;;4939302;29;20027;-72
2022/05/23 03:47:51;;;;;;;16.30;5.80;;;18.30;99.90;;;;;;4970971;28;20501;-74
2022/05/23 03:50:19;;;;;;;12.35;5.70;;;18.40;99.90;;;;;;4974252;28;20498;-74
2022/05/23 03:52:44;;;;;;;13.82;5.93;;;18.40;99.90;;;;;;4974353;28;20034;-74
2022/05/23 03:55:22;;;;;;;12.23;5.25;;;18.30;99.90;;;;;;4958082;28;20041;-73
2022/05/23 03:57:53;;;;;;;;;;;18.20;99.90;;;;;;4974758;28;20386;-73
2022/05/23 04:00:19;;;;;;;17.65;6.47;;;18.30;99.90;;;;;;4973374;28;19997;-68
2022/05/23 04:02:51;;;;;;;14.17;5.63;;;18.10;99.90;;;;;;4991233;28;20099;-74
2022/05/23 04:05:18;;;;;;;13.18;5.60;;;18.10;99.90;;;;;;5015202;28;20298;-72
2022/05/23 04:08:04;;;;;;;11.77;5.47;;;18.10;99.90;;;;;;5014719;28;20057;-73
2022/05/23 04:10:38;;;;;;;15.45;4.95;;;18.30;99.90;;;;;;4997292;28;20388;-74
2022/05/23 04:13:04;;;;;;;14.40;5.88;;;18.60;99.90;;;;;;4997559;28;20553;-73
2022/05/23 04:15:32;;;;;;;15.60;5.95;;;19.60;99.90;;;;;;4997201;28;20026;-74
2022/05/23 04:17:58;;;;;;;16.20;5.95;;;20.90;99.90;;;;;;5013257;28;20033;-74
2022/05/23 04:20:26;;;;;;;17.38;5.53;;;21.80;99.70;;;;;;5014990;28;20034;-75
2022/05/23 04:23:03;;;;;;;15.35;5.95;;;23.00;97.80;;;;;;5013436;28;20132;-73
2022/05/23 04:25:29;;;;;;;13.48;5.40;;;23.60;93.60;;;;;;5013457;28;20484;-73
2022/05/23 04:27:56;;;;;;;22.20;5.28;;;24.60;90.40;;;;;;5013751;28;20029;-73
2022/05/23 04:30:21;;;;;;;27.52;6.20;;;25.20;85.00;;;;;;5014543;28;20369;-73
2022/05/23 04:35:35;;;;;;;25.58;5.82;;;26.30;79.30;;;;;;4997303;28;20087;-71
2022/05/23 04:38:02;;;;;;;14.82;5.68;;;26.80;76.30;;;;;;4998169;28;20029;-72
2022/05/23 04:40:32;;;;;;;12.77;5.97;;;27.00;73.50;;;;;;4997581;28;20026;-73
2022/05/23 04:43:01;;;;;;;14.43;5.10;;;27.70;71.30;;;;;;4996692;28;20125;-71
2022/05/23 04:45:27;;;;;;;10.32;5.35;;;28.00;69.90;;;;;;4997153;28;20237;-73
2022/05/23 04:50:56;;;;;;;7.72;3.45;;;28.10;69.70;;;;;;4993461;28;20046;-73
2022/05/23 04:53:24;;;;;;;5.43;2.80;;;28.00;67.20;;;;;;4993564;28;20026;-71
2022/05/23 04:56:11;;;;;;;6.82;3.33;;;28.00;66.50;;;;;;4993670;28;20031;-70
2022/05/23 04:58:37;;;;;;;9.23;3.00;;;26.90;66.50;;;;;;4994726;28;20038;-73
2022/05/23 05:01:03;;;;;;;8.10;3.47;;;26.00;68.50;;;;;;4993147;28;20050;-73
2022/05/23 05:03:30;;;;;;;6.93;3.25;;;25.40;69.80;;;;;;4993487;28;20415;-72
2022/05/23 05:05:57;;;;;;;12.20;4.15;;;24.80;71.20;;;;;;4992929;28;20026;-73
2022/05/23 05:08:23;;;;;;;8.27;4.28;;;24.30;72.50;;;;;;4992784;28;20053;-73
2022/05/23 05:10:53;;;;;;;10.05;4.47;;;23.90;73.40;;;;;;4993100;28;20025;-72
2022/05/23 05:13:20;;;;;;;9.93;4.18;;;23.50;73.50;;;;;;4993043;28;20045;-73
2022/05/23 05:15:45;;;;;;;7.90;4.07;;;23.10;73.50;;;;;;4994506;28;20018;-69
2022/05/23 05:18:21;;;;;;;13.30;4.40;;;22.10;79.60;;;;;;4994677;28;20038;-72
2022/05/23 05:20:55;;;;;;;11.40;5.30;;;21.00;94.90;;;;;;5009333;28;20038;-72
2022/05/23 05:23:41;;;;;;;8.75;4.25;;;20.90;99.90;;;;;;4952228;29;20051;-72
2022/05/23 05:26:23;;;;;;;10.10;4.45;;;21.20;98.70;;;;;;4953196;28;20039;-71
2022/05/23 05:28:49;;;;;;;11.13;4.53;;;21.30;98.90;;;;;;4952942;29;20047;-72
2022/05/23 05:31:33;;;;;;;12.20;4.82;;;21.10;96.60;;;;;;4952982;29;20023;-71
2022/05/23 05:34:10;;;;;;;7.78;4.43;;;21.50;97.40;;;;;;4952820;28;20030;-70
2022/05/23 05:36:40;;;;;;;10.07;4.85;;;21.50;98.70;;;;;;4953172;29;20042;-72
2022/05/23 05:39:08;;;;;;;11.50;4.32;;;21.50;99.60;;;;;;4953056;29;20375;-72
2022/05/23 05:41:59;;;;;;;14.15;4.32;;;21.40;98.70;;;;;;4952907;28;20039;-71
2022/05/23 05:44:35;;;;;;;11.23;4.53;;;21.60;92.80;;;;;;4952729;28;20047;-72
2022/05/23 05:47:08;;;;;;;20.10;7.38;;;21.50;86.90;;;;;;4952738;28;20433;-72
2022/05/23 05:49:38;;;;;;;8.65;4.65;;;21.80;92.50;;;;;;4952852;28;20046;-72
2022/05/23 05:52:13;;;;;;;12.05;3.85;;;22.10;88.60;;;;;;4936698;29;20027;-71
2022/05/23 05:54:52;;;;;;;14.95;3.65;;;22.20;86.60;;;;;;4952621;28;20042;-71
2022/05/23 05:57:19;;;;;;;15.73;4.68;;;22.20;80.50;;;;;;4952551;28;20031;-72
2022/05/23 05:59:46;;;;;;;11.43;3.45;;;22.30;77.50;;;;;;4955939;28;20057;-71
2022/05/23 06:02:14;;;;;;;8.38;2.67;;;22.50;75.90;;;;;;4992205;28;20149;-71
2022/05/23 06:04:41;;;;;;;14.00;3.20;;;22.50;74.30;;;;;;4992163;28;20474;-68
2022/05/23 06:13:33;;;;;;;1.45;1.25;;;22.50;65.90;;;;;;4992498;28;20365;-72
2022/05/23 06:16:13;;;;;;;2.97;1.63;;;22.50;67.00;;;;;;4992088;28;20042;-70
2022/05/23 06:18:51;;;;;;;5.60;2.17;;;22.50;68.00;;;;;;4992107;28;20092;-71
2022/05/23 06:21:17;;;;;;;4.65;1.70;;;22.30;66.30;;;;;;4991969;28;20493;-72
2022/05/23 06:23:46;;;;;;;3.05;1.83;;;21.50;66.00;;;;;;4993148;28;20038;-72
2022/05/23 06:26:32;;;;;;;4.68;1.88;;;21.30;68.60;;;;;;4991882;28;20059;-71
2022/05/23 06:29:27;;;;;;;2.47;1.67;;;21.40;70.10;;;;;;4990198;28;20080;-69
2022/05/23 06:31:57;;;;;;;4.60;1.95;;;21.50;69.40;;;;;;5011258;28;20439;-70
2022/05/23 06:34:25;;;;;;;4.10;1.92;;;21.90;70.80;;;;;;5011913;28;20085;-72
2022/05/23 06:36:54;;;;;;;4.60;1.80;;;22.40;69.50;;;;;;4991900;28;20085;-71
2022/05/23 06:39:20;;;;;;;3.63;1.60;;;22.40;67.10;;;;;;5004778;28;20537;-65
2022/05/23 06:42:05;;;;;;;3.63;1.90;;;22.70;66.50;;;;;;4981767;28;20455;-71
2022/05/23 06:44:50;;;;;;;6.15;1.90;;;22.50;67.20;;;;;;4974946;28;20154;-71
2022/05/23 06:47:35;;;;;;;8.23;2.42;;;23.30;69.50;;;;;;4971170;28;20173;-72
2022/05/23 06:50:27;;;;;;;2.25;1.52;;;23.30;66.80;;;;;;4955793;28;20515;-71
2022/05/23 06:53:08;;;;;;;7.75;1.75;;;23.10;67.10;;;;;;4969960;28;20126;-72
2022/05/23 06:55:42;;;;;;;5.72;2.03;;;23.40;68.00;;;;;;4972991;28;20030;-70
2022/05/23 06:58:10;;;;;;;3.10;1.63;;;22.70;67.70;;;;;;4971648;28;20034;-72
2022/05/23 07:00:36;;;;;;;4.43;2.00;;;23.00;67.30;;;;;;4986229;28;20026;-66
2022/05/23 07:03:10;;;;;;;4.30;1.23;;;22.50;67.30;;;;;;4971417;28;20050;-64
2022/05/23 07:14:32;;;;;;;4.93;1.77;;;22.90;65.80;;;;;;4947286;29;20066;-72
2022/05/23 07:17:00;;;;;;;1.92;1.63;;;22.70;66.30;;;;;;4949427;28;20031;-70
2022/05/23 07:20:05;;;;;;;4.93;1.63;;;22.50;64.30;;;;;;4914931;29;20055;-69
2022/05/23 07:22:32;;;;;;;2.67;1.38;;;22.70;66.90;;;;;;4912099;29;20036;-72
2022/05/23 07:24:59;;;;;;;5.20;1.67;;;23.20;66.80;;;;;;4896356;29;20032;-70
2022/05/23 07:27:28;;;;;;;4.05;1.80;;;23.70;65.10;;;;;;4896327;29;20032;-71
2022/05/23 07:29:55;;;;;;;4.15;1.73;;;24.30;67.30;;;;;;4895890;29;20255;-71
2022/05/23 07:32:23;;;;;;;5.95;1.73;;;24.80;64.90;;;;;;4895651;29;20040;-72
2022/05/23 07:34:49;;;;;;;4.03;1.73;;;24.50;64.60;;;;;;4896165;29;20027;-73
2022/05/23 07:37:16;;;;;;;6.18;2.03;;;25.00;63.80;;;;;;4894511;29;20108;-71
2022/05/23 07:39:43;;;;;;;2.85;1.48;;;25.20;63.80;;;;;;4895287;29;20028;-70
2022/05/23 07:42:29;;;;;;;3.10;1.75;;;24.40;61.10;;;;;;4911362;29;20099;-68
2022/05/23 07:44:58;;;;;;;3.33;1.60;;;24.10;62.70;;;;;;4914502;29;20042;-71
2022/05/23 07:47:24;;;;;;;2.90;1.63;;;24.00;63.70;;;;;;4949451;28;20056;-71
2022/05/23 07:50:09;;;;;;;2.88;1.48;;;24.20;63.40;;;;;;4956303;28;20440;-71
2022/05/23 07:52:35;;;;;;;5.57;1.75;;;24.00;64.80;;;;;;4974304;28;20145;-72
2022/05/23 08:00:41;;;;;;;10.82;1.95;;;23.60;64.80;;;;;;4977802;28;20381;-72
2022/05/23 08:03:19;;;;;;;4.03;1.50;;;23.10;63.70;;;;;;4977526;28;20137;-73
2022/05/23 08:05:55;;;;;;;4.38;1.70;;;23.10;64.10;;;;;;4977690;28;20026;-73
2022/05/23 08:08:22;;;;;;;2.30;1.35;;;23.10;64.40;;;;;;4977733;28;20038;-72
2022/05/23 08:10:49;;;;;;;4.57;2.08;;;23.20;64.00;;;;;;4995221;28;20416;-72
2022/05/23 08:13:16;;;;;;;8.60;2.85;;;23.20;65.60;;;;;;4993534;28;20080;-72
2022/05/23 08:15:42;;;;;;;6.28;2.50;;;23.50;67.90;;;;;;4981893;28;20113;-68
2022/05/23 08:18:16;;;;;;;8.23;2.53;;;23.60;67.80;;;;;;5013358;28;20436;-71
2022/05/23 08:20:50;;;;;;;3.97;1.70;;;23.70;68.00;;;;;;5013200;28;20033;-71
2022/05/23 08:23:19;;;;;;;7.10;2.42;;;23.90;68.70;;;;;;5012026;28;20042;-71
2022/05/23 08:26:02;;;;;;;;;;;24.30;66.90;;;;;;4994296;28;20065;-73
2022/05/23 08:28:31;;;;;;;6.57;2.40;;;23.70;66.70;;;;;;4993491;28;19914;-73
2022/05/23 08:30:57;;;;;;;4.72;1.92;;;24.00;68.50;;;;;;4977076;28;20018;-73
2022/05/23 08:33:27;;;;;;;2.90;1.77;;;24.10;67.60;;;;;;4977159;28;20030;-72
2022/05/23 08:36:10;;;;;;;5.30;1.98;;;24.20;66.80;;;;;;4974894;28;20027;-73
2022/05/23 08:38:37;;;;;;;2.95;1.65;;;24.10;65.60;;;;;;4973472;28;20150;-72
2022/05/23 08:41:13;;;;;;;3.72;2.35;;;24.20;66.90;;;;;;4991736;28;20029;-72
2022/05/23 08:43:51;;;;;;;9.23;2.35;;;24.10;64.50;;;;;;4977047;28;20054;-72
2022/05/23 08:46:32;;;;;;;5.32;1.85;;;24.10;63.10;;;;;;4976711;28;20500;-71
2022/05/23 08:49:09;;;;;;;3.95;1.95;;;23.80;63.70;;;;;;4993046;28;20030;-71
2022/05/23 08:51:57;;;;;;;4.15;1.65;;;23.90;62.10;;;;;;4992949;28;20041;-68
2022/05/23 08:54:54;;;;;;;6.47;1.73;;;23.90;61.20;;;;;;4989987;28;20070;-72
2022/05/23 08:57:53;;;;;;;6.60;1.58;;;24.20;61.40;;;;;;4974703;28;20031;-72
2022/05/23 09:00:25;;;;;;;4.00;1.83;;;24.60;62.20;;;;;;4989756;28;20023;-71
2022/05/23 09:03:06;;;;;;;5.43;1.73;;;24.90;59.10;;;;;;4989497;28;20047;-72
2022/05/23 09:05:43;;;;;;;8.77;1.90;;;25.20;60.70;;;;;;5022741;28;20034;-73
2022/05/23 09:08:13;;;;;;;4.47;1.70;;;25.40;58.70;;;;;;5013678;28;20080;-73
2022/05/23 09:10:39;;;;;;;4.25;1.42;;;25.30;58.10;;;;;;5013741;28;20030;-72
2022/05/23 09:13:07;;;;;;;5.03;1.65;;;25.80;59.20;;;;;;5013950;28;20028;-72
2022/05/23 09:15:33;;;;;;;3.05;1.50;;;25.30;57.70;;;;;;4993558;28;20027;-73
2022/05/23 09:18:06;;;;;;;3.10;1.75;;;25.10;55.60;;;;;;4993834;28;20034;-72
2022/05/23 09:20:34;;;;;;;3.40;1.45;;;25.80;56.70;;;;;;4993346;28;20023;-72
2022/05/23 09:23:05;;;;;;;1.90;1.27;;;25.80;57.20;;;;;;4993635;28;20117;-73
2022/05/23 09:25:31;;;;;;;3.55;1.33;;;25.50;55.60;;;;;;4993807;28;20097;-73
2022/05/23 09:28:00;;;;;;;3.33;1.40;;;25.60;55.40;;;;;;4994169;28;20117;-73
2022/05/23 09:30:27;;;;;;;2.00;1.45;;;25.90;58.20;;;;;;4993654;28;20031;-73
2022/05/23 09:32:59;;;;;;;2.83;1.33;;;26.00;57.40;;;;;;4994141;28;20026;-73
2022/05/23 09:35:28;;;;;;;2.75;1.40;;;26.20;57.70;;;;;;4993528;28;20073;-71
2022/05/23 09:38:14;;;;;;;2.25;1.33;;;26.10;55.60;;;;;;4992704;28;20049;-72
2022/05/23 09:40:57;;;;;;;6.88;1.60;;;26.10;53.80;;;;;;4992126;28;20062;-73
2022/05/23 09:49:08;;;;;;;5.10;1.73;;;25.90;54.50;;;;;;4991697;28;20121;-72
2022/05/23 09:51:58;;;;;;;2.22;1.52;;;25.90;54.00;;;;;;4992649;28;20026;-73
2022/05/23 09:54:40;;;;;;;3.05;1.92;;;26.40;55.00;;;;;;4993576;28;20122;-72
2022/05/23 09:57:27;;;;;;;2.33;1.50;;;26.00;54.50;;;;;;4993285;28;20065;-70
2022/05/23 10:00:22;;;;;;;4.30;1.48;;;26.40;55.80;;;;;;4990115;28;20026;-73
2022/05/23 10:02:53;;;;;;;3.50;1.40;;;26.10;54.50;;;;;;4991968;28;20048;-70
2022/05/23 10:05:26;;;;;;;4.30;1.73;;;26.40;54.40;;;;;;4977405;28;20073;-72
2022/05/23 10:08:00;;;;;;;6.22;1.52;;;26.30;53.50;;;;;;4992274;28;20036;-72
2022/05/23 10:10:28;;;;;;;2.03;1.17;;;26.40;55.70;;;;;;4992829;28;20056;-72
2022/05/23 10:13:24;;;;;;;2.90;1.52;;;25.80;53.00;;;;;;4992748;28;20026;-73
2022/05/23 10:15:53;;;;;;;4.57;1.70;;;26.00;53.40;;;;;;4992632;28;20034;-73
2022/05/23 10:18:29;;;;;;;4.80;1.80;;;26.40;55.40;;;;;;4991524;28;20065;-73
2022/05/23 10:20:56;;;;;;;3.97;1.42;;;26.10;52.90;;;;;;4991826;28;20736;-73
2022/05/23 10:23:26;;;;;;;2.97;1.33;;;26.30;54.20;;;;;;4992516;28;20320;-72
2022/05/23 10:26:16;;;;;;;4.05;1.58;;;25.60;52.60;;;;;;4992107;28;20037;-73
2022/05/23 10:28:59;;;;;;;3.60;1.60;;;26.10;53.40;;;;;;4992127;28;20034;-73
2022/05/23 10:31:34;;;;;;;3.72;1.60;;;25.60;54.10;;;;;;4992639;28;20039;-71
2022/05/23 10:34:08;;;;;;;13.40;1.73;;;25.60;52.60;;;;;;4992530;28;20065;-73
2022/05/23 10:36:36;;;;;;;6.80;1.60;;;26.00;53.70;;;;;;4992241;28;20034;-73
2022/05/23 10:42:12;;;;;;;5.03;1.63;;;25.90;54.60;;;;;;4991977;28;20022;-68
2022/05/23 10:44:59;;;;;;;4.57;1.42;;;24.90;53.70;;;;;;4932287;29;20540;-72
2022/05/23 10:47:51;;;;;;;1.90;1.33;;;25.40;55.30;;;;;;4918355;29;20810;-73
2022/05/23 10:50:49;;;;;;;8.32;1.35;;;25.30;53.90;;;;;;4941656;28;20083;-74
2022/05/23 10:53:46;;;;;;;3.08;1.30;;;25.70;55.80;;;;;;4932429;29;20035;-73
2022/05/23 10:56:33;;;;;;;2.15;1.30;;;25.60;53.40;;;;;;4932525;29;20040;-72
2022/05/23 10:59:11;;;;;;;3.53;1.38;;;25.70;55.60;;;;;;4935078;29;20048;-73
2022/05/23 11:02:07;;;;;;;1.52;1.13;;;25.50;54.30;;;;;;4932439;28;20514;-72
2022/05/23 11:05:10;;;;;;;7.03;1.77;;;25.20;54.20;;;;;;4941386;29;20540;-72
2022/05/23 11:07:44;;;;;;;7.25;1.92;;;25.20;55.90;;;;;;4934457;29;20105;-73
2022/05/23 11:10:32;;;;;;;5.00;1.63;;;25.20;55.40;;;;;;4932106;29;20036;-72
2022/05/23 11:12:58;;;;;;;1.45;1.08;;;25.10;56.20;;;;;;4934524;29;20039;-72
2022/05/23 11:15:51;;;;;;;1.40;1.10;;;25.10;56.70;;;;;;4935668;29;20042;-72
2022/05/23 11:18:40;;;;;;;4.60;1.60;;;25.20;55.60;;;;;;4931764;29;20039;-72
2022/05/23 11:21:09;;;;;;;2.38;1.45;;;24.80;54.90;;;;;;4883197;29;20097;-70
2022/05/23 11:23:40;;;;;;;;;;;25.10;56.50;;;;;;4900698;29;20123;-73
2022/05/23 11:26:25;;;;;;;5.57;1.58;;;25.10;56.20;;;;;;4912591;29;19911;-72
2022/05/23 11:34:28;;;;;;;5.28;1.70;;;25.40;57.20;;;;;;4901526;29;20067;-72
2022/05/23 11:39:50;;;;;;;3.72;1.80;;;25.30;55.90;;;;;;4914521;29;20048;-73
2022/05/23 11:42:56;;;;;;;5.80;1.52;;;25.60;57.00;;;;;;4904596;29;20056;-72
2022/05/23 11:48:45;;;;;;;1.67;1.30;;;25.40;57.40;;;;;;4899156;29;20040;-73
2022/05/23 11:51:24;;;;;;;4.35;1.70;;;25.40;56.50;;;;;;4910552;29;20050;-73
2022/05/23 11:53:56;;;;;;;7.18;1.80;;;25.40;56.40;;;;;;4916303;29;20369;-73
2022/05/23 11:56:31;;;;;;;27.13;17.05;;;25.30;57.20;;;;;;4914908;29;20509;-72
2022/05/23 11:58:58;;;;;;;10.20;3.20;;;25.30;57.10;;;;;;4980194;28;20041;-73
2022/05/23 12:01:27;;;;;;;30.48;21.25;;;25.40;56.30;;;;;;4994921;28;20022;-72
2022/05/23 12:03:54;;;;;;;9.73;3.05;;;25.50;55.90;;;;;;4993889;28;20448;-72
2022/05/23 12:06:29;;;;;;;2.85;1.42;;;25.80;55.90;;;;;;4994417;28;20077;-73
2022/05/23 12:09:04;;;;;;;11.68;5.80;;;25.80;57.00;;;;;;4994206;28;20030;-72
2022/05/23 12:11:36;;;;;;;6.50;3.72;;;25.80;56.70;;;;;;4994623;28;20354;-72
2022/05/23 12:14:14;;;;;;;5.30;1.90;;;25.40;55.40;;;;;;4994993;28;20036;-73
2022/05/23 12:16:45;;;;;;;1.50;1.27;;;25.60;55.50;;;;;;4994979;28;20116;-72
2022/05/23 12:19:19;;;;;;;3.08;2.10;;;25.40;55.90;;;;;;4995490;28;20031;-73
2022/05/23 12:21:47;;;;;;;7.00;2.28;;;25.60;56.20;;;;;;4994590;28;20038;-72
2022/05/23 12:24:26;;;;;;;4.00;2.50;;;25.70;56.30;;;;;;4995486;28;20448;-72
2022/05/23 12:26:56;;;;;;;1.20;1.10;;;25.70;55.60;;;;;;4994990;28;20109;-73
2022/05/23 12:29:26;;;;;;;4.40;2.20;;;26.00;56.40;;;;;;4994414;28;20034;-72
2022/05/23 12:32:14;;;;;;;11.25;4.80;;;26.20;55.80;;;;;;4979630;28;20032;-67
2022/05/23 12:34:47;;;;;;;5.70;2.30;;;26.20;55.70;;;;;;4993026;28;20023;-64
2022/05/23 12:37:33;;;;;;;3.90;2.10;;;25.90;55.10;;;;;;4994876;28;20038;-65
2022/05/23 12:40:13;;;;;;;2.83;1.50;;;26.30;55.50;;;;;;4995353;28;20495;-64
2022/05/23 12:43:22;;;;;;;6.35;1.25;;;26.10;55.20;;;;;;4994892;28;20031;-63
2022/05/23 12:46:18;;;;;;;2.95;1.40;;;25.80;54.50;;;;;;4930884;28;20111;-72
2022/05/23 12:48:51;;;;;;;4.50;2.00;;;25.90;53.60;;;;;;4936797;29;20517;-71
2022/05/23 12:51:20;;;;;;;5.15;2.50;;;25.50;54.10;;;;;;4953858;29;20035;-73
2022/05/23 12:53:46;;;;;;;12.98;2.90;;;26.00;55.50;;;;;;4953846;29;20042;-72
2022/05/23 12:56:26;;;;;;;7.13;2.92;;;26.10;54.60;;;;;;4954006;28;20047;-73
2022/05/23 12:58:55;;;;;;;4.53;2.60;;;25.70;53.60;;;;;;4954659;28;20066;-72
2022/05/23 13:01:26;;;;;;;5.10;1.35;;;26.30;55.30;;;;;;4953533;29;20118;-72
2022/05/23 13:04:14;;;;;;;5.32;2.13;;;26.30;54.80;;;;;;4953608;29;20134;-73
2022/05/23 13:06:53;;;;;;;2.33;1.30;;;26.00;54.00;;;;;;4953736;29;20031;-72
2022/05/23 13:09:34;;;;;;;5.43;2.33;;;25.80;55.00;;;;;;4953933;29;20143;-73
2022/05/23 13:12:07;;;;;;;2.33;1.50;;;25.60;54.40;;;;;;4953137;28;20035;-73
2022/05/23 13:14:55;;;;;;;6.20;2.75;;;25.50;55.90;;;;;;4953198;29;20045;-71
2022/05/23 13:17:44;;;;;;;4.03;1.80;;;24.90;55.10;;;;;;4953170;29;20117;-72
2022/05/23 13:23:23;;;;;;;11.27;1.90;;;25.00;56.50;;;;;;4983118;28;20484;-72
2022/05/23 13:25:50;;;;;;;12.88;3.30;;;24.80;56.50;;;;;;4992167;28;20579;-71
2022/05/23 13:28:18;;;;;;;4.45;2.05;;;24.90;57.30;;;;;;4989526;28;20030;-74
2022/05/23 13:30:49;;;;;;;7.10;2.58;;;24.70;57.90;;;;;;4992979;28;20077;-69
2022/05/23 13:33:20;;;;;;;4.68;2.38;;;24.80;57.00;;;;;;4992867;28;20065;-72
2022/05/23 13:35:53;;;;;;;3.77;1.87;;;24.60;57.40;;;;;;4991707;28;20077;-73
2022/05/23 13:38:20;;;;;;;7.40;1.65;;;24.80;57.70;;;;;;4993777;28;20050;-72
2022/05/23 13:40:51;;;;;;;3.47;1.88;;;24.50;57.40;;;;;;4993850;28;20484;-73
2022/05/23 13:43:26;;;;;;;18.58;3.90;;;24.60;58.90;;;;;;4993437;28;20049;-73
2022/05/23 13:46:19;;;;;;;6.82;2.25;;;24.60;59.70;;;;;;4982893;28;20387;-72
2022/05/23 13:48:51;;;;;;;6.65;2.72;;;24.50;60.20;;;;;;4993002;28;20049;-73
2022/05/23 13:51:22;;;;;;;;;;;24.30;59.40;;;;;;4974001;28;20026;-72
2022/05/23 13:54:06;;;;;;;4.57;2.15;;;24.30;59.40;;;;;;4973601;28;19910;-72
2022/05/23 13:56:33;;;;;;;4.63;2.13;;;24.50;60.40;;;;;;4973845;28;20389;-71
2022/05/23 13:59:05;;;;;;;9.05;2.92;;;24.80;60.50;;;;;;4979669;28;20045;-68
2022/05/23 14:01:42;;;;;;;3.53;1.60;;;25.00;59.30;;;;;;4986228;28;20146;-72
2022/05/23 14:04:12;;;;;;;17.02;2.70;;;24.90;60.60;;;;;;4990928;28;20096;-66
2022/05/23 14:06:42;;;;;;;12.77;5.68;;;25.30;60.50;;;;;;4992990;28;20037;-71
2022/05/23 14:09:08;;;;;;;3.67;2.13;;;25.60;59.90;;;;;;4992979;28;20388;-72
2022/05/23 14:11:38;;;;;;;4.47;2.13;;;25.60;59.30;;;;;;4992826;28;20019;-72
2022/05/23 14:14:26;;;;;;;15.68;11.38;;;25.80;59.50;;;;;;4989539;28;20105;-73
2022/05/23 14:17:09;;;;;;;6.40;2.42;;;25.60;59.10;;;;;;4993331;28;20041;-72
2022/05/23 14:19:54;;;;;;;7.88;3.55;;;25.40;57.30;;;;;;4993105;28;20034;-73
2022/05/23 14:22:30;;;;;;;9.35;3.85;;;25.10;57.80;;;;;;4989236;28;20381;-72
2022/05/23 14:25:22;;;;;;;4.95;2.65;;;25.30;58.40;;;;;;4991013;28;20026;-73
2022/05/23 14:27:53;;;;;;;4.28;1.60;;;25.50;60.20;;;;;;4973309;28;20037;-73
2022/05/23 14:30:25;;;;;;;2.88;2.05;;;25.50;58.20;;;;;;4971833;28;20023;-73